sensor_id;sensor_type;location;lat;lon;timestamp;temperature;humidity
19829;DHT22;10075;50.924;4.396;2023-07-31T00:01:27;18.30;99.90
19829;DHT22;10075;50.924;4.396;2023-07-31T00:03:54;18.30;99.90
19829;DHT22;10075;50.924;4.396;2023-07-31T00:06:21;18.40;99.90
19829;DHT22;10075;50.924;4.396;2023-07-31T00:08:49;18.40;99.90
19829;DHT22;10075;50.924;4.396;2023-07-31T00:11:16;18.30;99.90
19829;DHT22;10075;50.924;4.396;2023-07-31T00:13:43;18.40;99.90
19829;DHT22;10075;50.924;4.396;2023-07-31T00:16:10;18.40;99.90
19829;DHT22;10075;50.924;4.396;2023-07-31T00:18:37;18.50;99.90
19829;DHT22;10075;50.924;4.396;2023-07-31T00:21:04;18.40;99.90
19829;DHT22;10075;50.924;4.396;2023-07-31T00:23:31;18.50;99.90
19829;DHT22;10075;50.924;4.396;2023-07-31T00:25:59;18.50;99.90
19829;DHT22;10075;50.924;4.396;2023-07-31T00:28:26;18.50;99.90
19829;DHT22;10075;50.924;4.396;2023-07-31T00:30:54;18.50;99.90
19829;DHT22;10075;50.924;4.396;2023-07-31T00:33:21;18.50;99.90
19829;DHT22;10075;50.924;4.396;2023-07-31T00:35:48;18.50;99.90
19829;DHT22;10075;50.924;4.396;2023-07-31T00:38:15;18.60;99.90
19829;DHT22;10075;50.924;4.396;2023-07-31T00:40:42;18.60;99.90
19829;DHT22;10075;50.924;4.396;2023-07-31T00:43:11;18.70;99.90
19829;DHT22;10075;50.924;4.396;2023-07-31T00:45:37;18.70;99.90
19829;DHT22;10075;50.924;4.396;2023-07-31T00:48:05;18.60;99.90
19829;DHT22;10075;50.924;4.396;2023-07-31T00:50:33;18.60;99.90
19829;DHT22;10075;50.924;4.396;2023-07-31T00:53:01;18.60;99.90
19829;DHT22;10075;50.924;4.396;2023-07-31T00:55:28;18.50;99.90
19829;DHT22;10075;50.924;4.396;2023-07-31T00:57:56;18.60;99.90
19829;DHT22;10075;50.924;4.396;2023-07-31T01:00:24;18.60;99.90
19829;DHT22;10075;50.924;4.396;2023-07-31T01:02:51;18.60;99.90
19829;DHT22;10075;50.924;4.396;2023-07-31T01:05:20;18.60;99.90
19829;DHT22;10075;50.924;4.396;2023-07-31T01:07:55;18.60;99.90
19829;DHT22;10075;50.924;4.396;2023-07-31T01:10:28;18.60;99.90
19829;DHT22;10075;50.924;4.396;2023-07-31T01:12:57;18.70;99.90
19829;DHT22;10075;50.924;4.396;2023-07-31T01:15:26;18.60;99.90
19829;DHT22;10075;50.924;4.396;2023-07-31T01:17:53;18.60;99.90
19829;DHT22;10075;50.924;4.396;2023-07-31T01:20:22;18.60;99.90
19829;DHT22;10075;50.924;4.396;2023-07-31T01:23:31;18.60;99.90
19829;DHT22;10075;50.924;4.396;2023-07-31T01:26:08;18.50;99.90
19829;DHT22;10075;50.924;4.396;2023-07-31T01:28:46;18.60;99.90
19829;DHT22;10075;50.924;4.396;2023-07-31T01:31:20;18.60;99.90
19829;DHT22;10075;50.924;4.396;2023-07-31T01:33:47;18.50;99.90
19829;DHT22;10075;50.924;4.396;2023-07-31T01:36:15;18.50;99.90
19829;DHT22;10075;50.924;4.396;2023-07-31T01:38:42;18.60;99.90
19829;DHT22;10075;50.924;4.396;2023-07-31T01:41:10;18.60;99.90
19829;DHT22;10075;50.924;4.396;2023-07-31T01:43:37;18.70;99.90
19829;DHT22;10075;50.924;4.396;2023-07-31T01:46:04;18.70;99.90
19829;DHT22;10075;50.924;4.396;2023-07-31T01:48:31;18.70;99.90
19829;DHT22;10075;50.924;4.396;2023-07-31T01:51:01;18.70;99.90
19829;DHT22;10075;50.924;4.396;2023-07-31T01:53:28;18.70;99.90
19829;DHT22;10075;50.924;4.396;2023-07-31T01:55:55;18.70;99.90
19829;DHT22;10075;50.924;4.396;2023-07-31T01:58:23;18.80;99.90
19829;DHT22;10075;50.924;4.396;2023-07-31T02:00:50;18.80;99.90
19829;DHT22;10075;50.924;4.396;2023-07-31T02:03:17;18.80;99.90
19829;DHT22;10075;50.924;4.396;2023-07-31T02:05:45;18.80;99.90
19829;DHT22;10075;50.924;4.396;2023-07-31T02:08:12;18.90;99.90
19829;DHT22;10075;50.924;4.396;2023-07-31T02:10:39;18.90;99.90
19829;DHT22;10075;50.924;4.396;2023-07-31T02:13:06;18.90;99.90
19829;DHT22;10075;50.924;4.396;2023-07-31T02:15:34;18.90;99.90
19829;DHT22;10075;50.924;4.396;2023-07-31T02:18:01;18.90;99.90
19829;DHT22;10075;50.924;4.396;2023-07-31T02:20:28;18.90;99.90
19829;DHT22;10075;50.924;4.396;2023-07-31T02:22:55;18.90;99.90
19829;DHT22;10075;50.924;4.396;2023-07-31T02:25:22;19.00;99.90
19829;DHT22;10075;50.924;4.396;2023-07-31T02:27:49;19.00;99.90
19829;DHT22;10075;50.924;4.396;2023-07-31T02:30:16;19.00;99.90
19829;DHT22;10075;50.924;4.396;2023-07-31T02:32:44;19.00;99.90
19829;DHT22;10075;50.924;4.396;2023-07-31T02:35:11;19.00;99.90
19829;DHT22;10075;50.924;4.396;2023-07-31T02:37:41;19.00;99.90
19829;DHT22;10075;50.924;4.396;2023-07-31T02:40:08;19.00;99.90
19829;DHT22;10075;50.924;4.396;2023-07-31T02:42:35;19.00;99.90
19829;DHT22;10075;50.924;4.396;2023-07-31T02:45:02;19.00;99.90
19829;DHT22;10075;50.924;4.396;2023-07-31T02:47:29;19.00;99.90
19829;DHT22;10075;50.924;4.396;2023-07-31T02:49:57;19.00;99.90
19829;DHT22;10075;50.924;4.396;2023-07-31T02:52:25;19.00;99.90
19829;DHT22;10075;50.924;4.396;2023-07-31T02:54:52;19.00;99.90
19829;DHT22;10075;50.924;4.396;2023-07-31T02:57:19;19.10;99.90
19829;DHT22;10075;50.924;4.396;2023-07-31T02:59:46;19.00;99.90
19829;DHT22;10075;50.924;4.396;2023-07-31T03:02:13;19.00;99.90
19829;DHT22;10075;50.924;4.396;2023-07-31T03:04:40;19.00;99.90
19829;DHT22;10075;50.924;4.396;2023-07-31T03:07:08;19.00;99.90
19829;DHT22;10075;50.924;4.396;2023-07-31T03:09:35;18.90;99.90
19829;DHT22;10075;50.924;4.396;2023-07-31T03:12:02;18.80;99.90
19829;DHT22;10075;50.924;4.396;2023-07-31T03:14:29;18.80;99.90
19829;DHT22;10075;50.924;4.396;2023-07-31T03:16:56;18.80;99.90
19829;DHT22;10075;50.924;4.396;2023-07-31T03:19:23;18.90;99.90
19829;DHT22;10075;50.924;4.396;2023-07-31T03:21:50;18.80;99.90
19829;DHT22;10075;50.924;4.396;2023-07-31T03:24:19;18.80;99.90
19829;DHT22;10075;50.924;4.396;2023-07-31T03:26:45;18.80;99.90
19829;DHT22;10075;50.924;4.396;2023-07-31T03:29:12;18.70;99.90
19829;DHT22;10075;50.924;4.396;2023-07-31T03:31:39;18.70;99.90
19829;DHT22;10075;50.924;4.396;2023-07-31T03:34:06;18.70;99.90
19829;DHT22;10075;50.924;4.396;2023-07-31T03:36:33;18.70;99.90
19829;DHT22;10075;50.924;4.396;2023-07-31T03:39:00;18.80;99.90
19829;DHT22;10075;50.924;4.396;2023-07-31T03:41:28;18.80;99.90
19829;DHT22;10075;50.924;4.396;2023-07-31T03:43:55;18.80;99.90
19829;DHT22;10075;50.924;4.396;2023-07-31T03:46:22;18.80;99.90
19829;DHT22;10075;50.924;4.396;2023-07-31T03:48:50;18.70;99.90
19829;DHT22;10075;50.924;4.396;2023-07-31T03:51:17;18.70;99.90
19829;DHT22;10075;50.924;4.396;2023-07-31T03:53:44;18.70;99.90
19829;DHT22;10075;50.924;4.396;2023-07-31T03:56:11;18.70;99.90
19829;DHT22;10075;50.924;4.396;2023-07-31T03:58:39;18.70;99.90
19829;DHT22;10075;50.924;4.396;2023-07-31T04:01:06;18.70;99.90
19829;DHT22;10075;50.924;4.396;2023-07-31T04:03:33;18.60;99.90
19829;DHT22;10075;50.924;4.396;2023-07-31T04:06:00;18.60;99.90
19829;DHT22;10075;50.924;4.396;2023-07-31T04:08:27;18.60;99.90
19829;DHT22;10075;50.924;4.396;2023-07-31T04:10:54;18.60;99.90
19829;DHT22;10075;50.924;4.396;2023-07-31T04:13:22;18.60;99.90
19829;DHT22;10075;50.924;4.396;2023-07-31T04:15:50;18.60;99.90
19829;DHT22;10075;50.924;4.396;2023-07-31T04:18:17;18.60;99.90
19829;DHT22;10075;50.924;4.396;2023-07-31T04:20:44;18.50;99.90
19829;DHT22;10075;50.924;4.396;2023-07-31T04:23:11;18.50;99.90
19829;DHT22;10075;50.924;4.396;2023-07-31T04:25:38;18.50;99.90
19829;DHT22;10075;50.924;4.396;2023-07-31T04:28:05;18.50;99.90
19829;DHT22;10075;50.924;4.396;2023-07-31T04:30:33;18.50;99.90
19829;DHT22;10075;50.924;4.396;2023-07-31T04:33:01;18.50;99.90
19829;DHT22;10075;50.924;4.396;2023-07-31T04:35:28;18.50;99.90
19829;DHT22;10075;50.924;4.396;2023-07-31T04:37:55;18.50;99.90
19829;DHT22;10075;50.924;4.396;2023-07-31T04:40:22;18.40;99.90
19829;DHT22;10075;50.924;4.396;2023-07-31T04:42:49;18.50;99.90
19829;DHT22;10075;50.924;4.396;2023-07-31T04:45:16;18.50;99.90
19829;DHT22;10075;50.924;4.396;2023-07-31T04:47:43;18.50;99.90
19829;DHT22;10075;50.924;4.396;2023-07-31T04:50:12;18.50;99.90
19829;DHT22;10075;50.924;4.396;2023-07-31T04:52:39;18.60;99.90
19829;DHT22;10075;50.924;4.396;2023-07-31T04:55:06;18.60;99.90
19829;DHT22;10075;50.924;4.396;2023-07-31T04:57:33;18.60;99.90
19829;DHT22;10075;50.924;4.396;2023-07-31T05:00:00;18.60;99.90
19829;DHT22;10075;50.924;4.396;2023-07-31T05:02:27;18.60;99.90
19829;DHT22;10075;50.924;4.396;2023-07-31T05:04:54;18.60;99.90
19829;DHT22;10075;50.924;4.396;2023-07-31T05:07:22;18.50;99.90
19829;DHT22;10075;50.924;4.396;2023-07-31T05:09:49;18.50;99.90
19829;DHT22;10075;50.924;4.396;2023-07-31T05:12:16;18.50;99.90
19829;DHT22;10075;50.924;4.396;2023-07-31T05:14:43;18.50;99.90
19829;DHT22;10075;50.924;4.396;2023-07-31T05:17:10;18.50;99.90
19829;DHT22;10075;50.924;4.396;2023-07-31T05:19:37;18.50;99.90
19829;DHT22;10075;50.924;4.396;2023-07-31T05:22:04;18.50;99.90
19829;DHT22;10075;50.924;4.396;2023-07-31T05:24:33;18.40;99.90
19829;DHT22;10075;50.924;4.396;2023-07-31T05:27:00;18.40;99.90
19829;DHT22;10075;50.924;4.396;2023-07-31T05:29:27;18.40;99.90
19829;DHT22;10075;50.924;4.396;2023-07-31T05:31:54;18.30;99.90
19829;DHT22;10075;50.924;4.396;2023-07-31T05:34:20;18.40;99.90
19829;DHT22;10075;50.924;4.396;2023-07-31T05:36:47;18.40;99.90
19829;DHT22;10075;50.924;4.396;2023-07-31T05:39:14;18.40;99.90
19829;DHT22;10075;50.924;4.396;2023-07-31T05:41:42;18.40;99.90
19829;DHT22;10075;50.924;4.396;2023-07-31T05:44:09;18.40;99.90
19829;DHT22;10075;50.924;4.396;2023-07-31T05:46:36;18.50;99.90
19829;DHT22;10075;50.924;4.396;2023-07-31T05:49:03;18.50;99.90
19829;DHT22;10075;50.924;4.396;2023-07-31T05:51:30;18.50;99.90
19829;DHT22;10075;50.924;4.396;2023-07-31T05:53:57;18.50;99.90
19829;DHT22;10075;50.924;4.396;2023-07-31T05:56:24;18.50;99.90
19829;DHT22;10075;50.924;4.396;2023-07-31T05:58:54;18.50;99.90
19829;DHT22;10075;50.924;4.396;2023-07-31T06:01:22;18.40;99.90
19829;DHT22;10075;50.924;4.396;2023-07-31T06:03:49;18.40;99.90
19829;DHT22;10075;50.924;4.396;2023-07-31T06:06:17;18.50;99.90
19829;DHT22;10075;50.924;4.396;2023-07-31T06:08:43;18.50;99.90
19829;DHT22;10075;50.924;4.396;2023-07-31T06:11:11;18.50;99.90
19829;DHT22;10075;50.924;4.396;2023-07-31T06:13:38;18.50;99.90
19829;DHT22;10075;50.924;4.396;2023-07-31T06:16:06;18.60;99.90
19829;DHT22;10075;50.924;4.396;2023-07-31T06:18:33;18.70;99.90
19829;DHT22;10075;50.924;4.396;2023-07-31T06:21:00;18.70;99.90
19829;DHT22;10075;50.924;4.396;2023-07-31T06:23:27;18.70;99.90
19829;DHT22;10075;50.924;4.396;2023-07-31T06:25:54;18.70;99.90
19829;DHT22;10075;50.924;4.396;2023-07-31T06:28:21;18.70;99.90
19829;DHT22;10075;50.924;4.396;2023-07-31T06:30:48;18.80;99.90
19829;DHT22;10075;50.924;4.396;2023-07-31T06:33:16;18.90;99.90
19829;DHT22;10075;50.924;4.396;2023-07-31T06:35:43;19.00;99.90
19829;DHT22;10075;50.924;4.396;2023-07-31T06:38:11;19.10;99.90
19829;DHT22;10075;50.924;4.396;2023-07-31T06:40:38;19.10;99.90
19829;DHT22;10075;50.924;4.396;2023-07-31T06:43:05;19.30;99.90
19829;DHT22;10075;50.924;4.396;2023-07-31T06:45:33;19.40;99.90
19829;DHT22;10075;50.924;4.396;2023-07-31T06:48:01;19.40;99.90
19829;DHT22;10075;50.924;4.396;2023-07-31T06:50:29;19.50;99.90
19829;DHT22;10075;50.924;4.396;2023-07-31T06:52:56;19.50;99.90
19829;DHT22;10075;50.924;4.396;2023-07-31T06:55:24;19.60;99.90
19829;DHT22;10075;50.924;4.396;2023-07-31T06:57:53;19.70;99.90
19829;DHT22;10075;50.924;4.396;2023-07-31T07:00:21;19.90;99.90
19829;DHT22;10075;50.924;4.396;2023-07-31T07:02:48;20.00;99.90
19829;DHT22;10075;50.924;4.396;2023-07-31T07:05:16;20.10;99.90
19829;DHT22;10075;50.924;4.396;2023-07-31T07:07:45;20.20;99.90
19829;DHT22;10075;50.924;4.396;2023-07-31T07:10:12;20.30;99.90
19829;DHT22;10075;50.924;4.396;2023-07-31T07:12:39;20.50;99.90
19829;DHT22;10075;50.924;4.396;2023-07-31T07:15:06;20.70;99.90
19829;DHT22;10075;50.924;4.396;2023-07-31T07:17:33;20.80;99.90
19829;DHT22;10075;50.924;4.396;2023-07-31T07:20:01;21.00;99.90
19829;DHT22;10075;50.924;4.396;2023-07-31T07:22:29;21.10;99.90
19829;DHT22;10075;50.924;4.396;2023-07-31T07:24:57;21.10;99.90
19829;DHT22;10075;50.924;4.396;2023-07-31T07:27:24;21.20;99.90
19829;DHT22;10075;50.924;4.396;2023-07-31T07:29:51;21.10;99.90
19829;DHT22;10075;50.924;4.396;2023-07-31T07:32:19;21.20;99.90
19829;DHT22;10075;50.924;4.396;2023-07-31T07:34:47;21.20;99.90
19829;DHT22;10075;50.924;4.396;2023-07-31T07:37:14;21.10;99.90
19829;DHT22;10075;50.924;4.396;2023-07-31T07:39:41;21.00;99.90
19829;DHT22;10075;50.924;4.396;2023-07-31T07:42:10;21.10;99.90
19829;DHT22;10075;50.924;4.396;2023-07-31T07:44:37;21.10;99.90
19829;DHT22;10075;50.924;4.396;2023-07-31T07:47:04;21.10;99.90
19829;DHT22;10075;50.924;4.396;2023-07-31T07:49:33;21.00;99.90
19829;DHT22;10075;50.924;4.396;2023-07-31T07:52:00;21.10;99.90
19829;DHT22;10075;50.924;4.396;2023-07-31T07:54:27;21.20;99.90
19829;DHT22;10075;50.924;4.396;2023-07-31T07:56:54;21.20;99.90
19829;DHT22;10075;50.924;4.396;2023-07-31T07:59:22;21.10;99.90
19829;DHT22;10075;50.924;4.396;2023-07-31T08:01:49;21.20;99.90
19829;DHT22;10075;50.924;4.396;2023-07-31T08:04:16;21.20;99.90
19829;DHT22;10075;50.924;4.396;2023-07-31T08:06:43;21.20;99.90
19829;DHT22;10075;50.924;4.396;2023-07-31T08:09:10;21.30;99.90
19829;DHT22;10075;50.924;4.396;2023-07-31T08:11:37;21.60;99.90
19829;DHT22;10075;50.924;4.396;2023-07-31T08:14:04;21.90;99.90
19829;DHT22;10075;50.924;4.396;2023-07-31T08:16:32;22.10;99.90
19829;DHT22;10075;50.924;4.396;2023-07-31T08:19:00;22.20;99.90
19829;DHT22;10075;50.924;4.396;2023-07-31T08:21:27;22.30;99.90
19829;DHT22;10075;50.924;4.396;2023-07-31T08:23:54;22.30;99.90
19829;DHT22;10075;50.924;4.396;2023-07-31T08:26:21;22.30;99.90
19829;DHT22;10075;50.924;4.396;2023-07-31T08:28:48;22.30;99.90
19829;DHT22;10075;50.924;4.396;2023-07-31T08:31:15;22.20;99.90
19829;DHT22;10075;50.924;4.396;2023-07-31T08:33:43;22.10;99.90
19829;DHT22;10075;50.924;4.396;2023-07-31T08:36:10;22.10;99.90
19829;DHT22;10075;50.924;4.396;2023-07-31T08:38:37;22.00;99.90
19829;DHT22;10075;50.924;4.396;2023-07-31T08:41:04;21.90;99.90
19829;DHT22;10075;50.924;4.396;2023-07-31T08:43:31;21.80;99.90
19829;DHT22;10075;50.924;4.396;2023-07-31T08:45:59;21.70;99.90
19829;DHT22;10075;50.924;4.396;2023-07-31T08:48:26;21.60;99.90
19829;DHT22;10075;50.924;4.396;2023-07-31T08:50:56;21.70;99.90
19829;DHT22;10075;50.924;4.396;2023-07-31T08:53:23;21.70;99.90
19829;DHT22;10075;50.924;4.396;2023-07-31T08:55:50;21.80;99.90
19829;DHT22;10075;50.924;4.396;2023-07-31T08:58:19;21.90;99.90
19829;DHT22;10075;50.924;4.396;2023-07-31T09:00:47;21.80;99.90
19829;DHT22;10075;50.924;4.396;2023-07-31T09:03:15;21.70;99.90
19829;DHT22;10075;50.924;4.396;2023-07-31T09:05:43;21.80;99.90
19829;DHT22;10075;50.924;4.396;2023-07-31T09:08:14;22.00;99.90
19829;DHT22;10075;50.924;4.396;2023-07-31T09:10:43;22.10;99.90
19829;DHT22;10075;50.924;4.396;2023-07-31T09:13:11;22.10;99.90
19829;DHT22;10075;50.924;4.396;2023-07-31T09:15:38;22.10;99.90
19829;DHT22;10075;50.924;4.396;2023-07-31T09:18:07;21.90;99.90
19829;DHT22;10075;50.924;4.396;2023-07-31T09:20:34;21.90;99.90
19829;DHT22;10075;50.924;4.396;2023-07-31T09:23:08;22.10;99.90
19829;DHT22;10075;50.924;4.396;2023-07-31T09:25:38;22.20;99.90
19829;DHT22;10075;50.924;4.396;2023-07-31T09:28:06;22.50;99.90
19829;DHT22;10075;50.924;4.396;2023-07-31T09:30:45;22.80;99.90
19829;DHT22;10075;50.924;4.396;2023-07-31T09:33:13;23.10;99.90
19829;DHT22;10075;50.924;4.396;2023-07-31T09:35:40;23.20;99.90
19829;DHT22;10075;50.924;4.396;2023-07-31T09:38:10;23.50;99.90
19829;DHT22;10075;50.924;4.396;2023-07-31T09:40:40;23.70;99.90
19829;DHT22;10075;50.924;4.396;2023-07-31T09:43:09;23.70;99.90
19829;DHT22;10075;50.924;4.396;2023-07-31T09:45:39;23.70;99.90
19829;DHT22;10075;50.924;4.396;2023-07-31T09:48:07;23.80;99.90
19829;DHT22;10075;50.924;4.396;2023-07-31T09:50:37;23.80;99.90
19829;DHT22;10075;50.924;4.396;2023-07-31T09:53:05;23.80;99.90
19829;DHT22;10075;50.924;4.396;2023-07-31T09:55:32;23.80;99.90
19829;DHT22;10075;50.924;4.396;2023-07-31T09:58:04;23.70;99.90
19829;DHT22;10075;50.924;4.396;2023-07-31T10:00:32;23.40;99.90
19829;DHT22;10075;50.924;4.396;2023-07-31T10:02:59;23.10;99.90
19829;DHT22;10075;50.924;4.396;2023-07-31T10:05:31;22.90;99.90
19829;DHT22;10075;50.924;4.396;2023-07-31T10:08:00;22.80;99.90
19829;DHT22;10075;50.924;4.396;2023-07-31T10:10:27;22.60;99.90
19829;DHT22;10075;50.924;4.396;2023-07-31T10:12:56;22.40;99.90
19829;DHT22;10075;50.924;4.396;2023-07-31T10:15:25;22.40;99.90
19829;DHT22;10075;50.924;4.396;2023-07-31T10:17:54;22.40;99.90
19829;DHT22;10075;50.924;4.396;2023-07-31T10:20:21;22.60;99.90
19829;DHT22;10075;50.924;4.396;2023-07-31T10:22:49;22.60;99.90
19829;DHT22;10075;50.924;4.396;2023-07-31T10:25:18;22.90;99.90
19829;DHT22;10075;50.924;4.396;2023-07-31T10:27:47;23.10;99.90
19829;DHT22;10075;50.924;4.396;2023-07-31T10:30:16;23.30;99.90
19829;DHT22;10075;50.924;4.396;2023-07-31T10:32:46;23.30;99.90
19829;DHT22;10075;50.924;4.396;2023-07-31T10:35:15;23.40;99.90
19829;DHT22;10075;50.924;4.396;2023-07-31T10:37:43;23.40;99.90
19829;DHT22;10075;50.924;4.396;2023-07-31T10:40:12;23.40;99.90
19829;DHT22;10075;50.924;4.396;2023-07-31T10:42:46;23.30;99.90
19829;DHT22;10075;50.924;4.396;2023-07-31T10:45:14;23.20;99.90
19829;DHT22;10075;50.924;4.396;2023-07-31T10:47:58;23.00;99.90
19829;DHT22;10075;50.924;4.396;2023-07-31T10:50:26;23.00;99.90
19829;DHT22;10075;50.924;4.396;2023-07-31T10:52:54;23.00;99.90
19829;DHT22;10075;50.924;4.396;2023-07-31T10:55:30;23.20;99.90
19829;DHT22;10075;50.924;4.396;2023-07-31T10:58:04;23.30;99.90
19829;DHT22;10075;50.924;4.396;2023-07-31T11:00:32;23.50;99.90
19829;DHT22;10075;50.924;4.396;2023-07-31T11:03:02;23.60;99.90
19829;DHT22;10075;50.924;4.396;2023-07-31T11:05:47;23.70;99.90
19829;DHT22;10075;50.924;4.396;2023-07-31T11:08:17;23.60;99.90
19829;DHT22;10075;50.924;4.396;2023-07-31T11:10:45;23.60;99.90
19829;DHT22;10075;50.924;4.396;2023-07-31T11:13:13;23.60;99.90
19829;DHT22;10075;50.924;4.396;2023-07-31T11:15:40;23.70;99.90
19829;DHT22;10075;50.924;4.396;2023-07-31T11:18:08;24.00;99.90
19829;DHT22;10075;50.924;4.396;2023-07-31T11:20:38;24.10;99.90
19829;DHT22;10075;50.924;4.396;2023-07-31T11:23:08;24.60;99.90
19829;DHT22;10075;50.924;4.396;2023-07-31T11:25:36;24.90;99.90
19829;DHT22;10075;50.924;4.396;2023-07-31T11:28:05;25.30;99.90
19829;DHT22;10075;50.924;4.396;2023-07-31T11:30:33;25.40;99.90
19829;DHT22;10075;50.924;4.396;2023-07-31T11:33:01;25.50;99.90
19829;DHT22;10075;50.924;4.396;2023-07-31T11:35:31;25.50;99.90
19829;DHT22;10075;50.924;4.396;2023-07-31T11:37:59;25.50;99.90
19829;DHT22;10075;50.924;4.396;2023-07-31T11:40:26;25.40;99.90
19829;DHT22;10075;50.924;4.396;2023-07-31T11:42:56;25.20;99.90
19829;DHT22;10075;50.924;4.396;2023-07-31T11:45:25;24.90;99.90
19829;DHT22;10075;50.924;4.396;2023-07-31T11:47:52;24.70;99.90
19829;DHT22;10075;50.924;4.396;2023-07-31T11:50:20;24.50;99.90
19829;DHT22;10075;50.924;4.396;2023-07-31T11:52:49;24.30;99.90
19829;DHT22;10075;50.924;4.396;2023-07-31T11:55:17;24.10;99.90
19829;DHT22;10075;50.924;4.396;2023-07-31T11:57:45;24.10;99.90
19829;DHT22;10075;50.924;4.396;2023-07-31T12:00:14;24.10;99.90
19829;DHT22;10075;50.924;4.396;2023-07-31T12:02:42;23.90;99.90
19829;DHT22;10075;50.924;4.396;2023-07-31T12:05:11;23.90;99.90
19829;DHT22;10075;50.924;4.396;2023-07-31T12:07:50;24.10;99.90
19829;DHT22;10075;50.924;4.396;2023-07-31T12:10:28;24.30;99.90
19829;DHT22;10075;50.924;4.396;2023-07-31T12:12:56;24.30;99.90
19829;DHT22;10075;50.924;4.396;2023-07-31T12:15:32;24.20;99.90
19829;DHT22;10075;50.924;4.396;2023-07-31T12:17:59;24.10;99.90
19829;DHT22;10075;50.924;4.396;2023-07-31T12:20:26;23.70;99.90
19829;DHT22;10075;50.924;4.396;2023-07-31T12:22:57;23.70;99.90
19829;DHT22;10075;50.924;4.396;2023-07-31T12:25:29;23.70;99.90
19829;DHT22;10075;50.924;4.396;2023-07-31T12:27:56;23.80;99.90
19829;DHT22;10075;50.924;4.396;2023-07-31T12:30:27;23.90;99.90
19829;DHT22;10075;50.924;4.396;2023-07-31T12:32:54;24.30;99.90
19829;DHT22;10075;50.924;4.396;2023-07-31T12:35:21;24.70;99.90
19829;DHT22;10075;50.924;4.396;2023-07-31T12:37:48;25.10;99.90
19829;DHT22;10075;50.924;4.396;2023-07-31T12:40:16;25.50;99.90
19829;DHT22;10075;50.924;4.396;2023-07-31T12:42:43;25.90;99.90
19829;DHT22;10075;50.924;4.396;2023-07-31T12:45:10;25.90;99.90
19829;DHT22;10075;50.924;4.396;2023-07-31T12:47:37;26.00;99.90
19829;DHT22;10075;50.924;4.396;2023-07-31T12:50:05;26.20;99.90
19829;DHT22;10075;50.924;4.396;2023-07-31T12:52:32;26.30;99.90
19829;DHT22;10075;50.924;4.396;2023-07-31T12:54:59;26.40;99.90
19829;DHT22;10075;50.924;4.396;2023-07-31T12:57:28;26.20;99.90
19829;DHT22;10075;50.924;4.396;2023-07-31T12:59:55;26.10;99.90
19829;DHT22;10075;50.924;4.396;2023-07-31T13:02:22;26.00;99.90
19829;DHT22;10075;50.924;4.396;2023-07-31T13:04:50;25.70;99.90
19829;DHT22;10075;50.924;4.396;2023-07-31T13:07:17;25.50;99.90
19829;DHT22;10075;50.924;4.396;2023-07-31T13:09:44;25.30;99.90
19829;DHT22;10075;50.924;4.396;2023-07-31T13:12:11;25.10;99.90
19829;DHT22;10075;50.924;4.396;2023-07-31T13:14:39;24.90;99.90
19829;DHT22;10075;50.924;4.396;2023-07-31T13:17:06;24.50;99.90
19829;DHT22;10075;50.924;4.396;2023-07-31T13:19:33;24.20;99.90
19829;DHT22;10075;50.924;4.396;2023-07-31T13:22:00;23.80;99.90
19829;DHT22;10075;50.924;4.396;2023-07-31T13:24:27;23.50;99.90
19829;DHT22;10075;50.924;4.396;2023-07-31T13:26:54;23.10;99.90
19829;DHT22;10075;50.924;4.396;2023-07-31T13:29:21;22.70;99.90
19829;DHT22;10075;50.924;4.396;2023-07-31T13:31:52;22.50;99.90
19829;DHT22;10075;50.924;4.396;2023-07-31T13:34:19;22.50;99.90
19829;DHT22;10075;50.924;4.396;2023-07-31T13:36:46;22.30;99.90
19829;DHT22;10075;50.924;4.396;2023-07-31T13:39:13;22.20;99.90
19829;DHT22;10075;50.924;4.396;2023-07-31T13:41:40;22.00;99.90
19829;DHT22;10075;50.924;4.396;2023-07-31T13:44:07;21.90;99.90
19829;DHT22;10075;50.924;4.396;2023-07-31T13:46:34;21.80;99.90
19829;DHT22;10075;50.924;4.396;2023-07-31T13:49:02;21.70;99.90
19829;DHT22;10075;50.924;4.396;2023-07-31T13:51:29;21.70;99.90
19829;DHT22;10075;50.924;4.396;2023-07-31T13:53:56;21.70;99.90
19829;DHT22;10075;50.924;4.396;2023-07-31T13:56:23;21.70;99.90
19829;DHT22;10075;50.924;4.396;2023-07-31T13:58:50;21.80;99.90
19829;DHT22;10075;50.924;4.396;2023-07-31T14:01:17;21.80;99.90
19829;DHT22;10075;50.924;4.396;2023-07-31T14:03:44;21.70;99.90
19829;DHT22;10075;50.924;4.396;2023-07-31T14:06:12;21.70;99.90
19829;DHT22;10075;50.924;4.396;2023-07-31T14:08:40;21.90;99.90
19829;DHT22;10075;50.924;4.396;2023-07-31T14:11:06;21.90;99.90
19829;DHT22;10075;50.924;4.396;2023-07-31T14:13:33;22.00;99.90
19829;DHT22;10075;50.924;4.396;2023-07-31T14:16:00;22.10;99.90
19829;DHT22;10075;50.924;4.396;2023-07-31T14:18:27;22.10;99.90
19829;DHT22;10075;50.924;4.396;2023-07-31T14:20:54;22.10;99.90
19829;DHT22;10075;50.924;4.396;2023-07-31T14:23:23;22.20;99.90
19829;DHT22;10075;50.924;4.396;2023-07-31T14:25:50;22.10;99.90
19829;DHT22;10075;50.924;4.396;2023-07-31T14:28:17;22.20;99.90
19829;DHT22;10075;50.924;4.396;2023-07-31T14:30:44;22.30;99.90
19829;DHT22;10075;50.924;4.396;2023-07-31T14:33:11;22.30;99.90
19829;DHT22;10075;50.924;4.396;2023-07-31T14:35:38;22.30;99.90
19829;DHT22;10075;50.924;4.396;2023-07-31T14:38:04;22.30;99.90
19829;DHT22;10075;50.924;4.396;2023-07-31T14:40:33;22.40;99.90
19829;DHT22;10075;50.924;4.396;2023-07-31T14:43:00;22.40;99.90
19829;DHT22;10075;50.924;4.396;2023-07-31T14:45:27;22.30;99.90
19829;DHT22;10075;50.924;4.396;2023-07-31T14:47:54;22.30;99.90
19829;DHT22;10075;50.924;4.396;2023-07-31T14:50:21;22.20;99.90
19829;DHT22;10075;50.924;4.396;2023-07-31T14:52:48;22.10;99.90
19829;DHT22;10075;50.924;4.396;2023-07-31T14:55:15;22.10;99.90
19829;DHT22;10075;50.924;4.396;2023-07-31T14:57:44;22.10;99.90
19829;DHT22;10075;50.924;4.396;2023-07-31T15:00:12;22.00;99.90
19829;DHT22;10075;50.924;4.396;2023-07-31T15:02:39;21.90;99.90
19829;DHT22;10075;50.924;4.396;2023-07-31T15:05:07;21.80;99.90
19829;DHT22;10075;50.924;4.396;2023-07-31T15:07:34;21.70;99.90
19829;DHT22;10075;50.924;4.396;2023-07-31T15:10:02;21.70;99.90
19829;DHT22;10075;50.924;4.396;2023-07-31T15:12:29;21.60;99.90
19829;DHT22;10075;50.924;4.396;2023-07-31T15:14:58;21.50;99.90
19829;DHT22;10075;50.924;4.396;2023-07-31T15:17:25;21.40;99.90
19829;DHT22;10075;50.924;4.396;2023-07-31T15:19:52;21.40;99.90
19829;DHT22;10075;50.924;4.396;2023-07-31T15:22:19;21.30;99.90
19829;DHT22;10075;50.924;4.396;2023-07-31T15:24:46;21.20;99.90
19829;DHT22;10075;50.924;4.396;2023-07-31T15:27:14;21.20;99.90
19829;DHT22;10075;50.924;4.396;2023-07-31T15:29:41;21.20;99.90
19829;DHT22;10075;50.924;4.396;2023-07-31T15:32:09;21.30;99.90
19829;DHT22;10075;50.924;4.396;2023-07-31T15:34:36;21.30;99.90